sensor_id;sensor_type;location;lat;lon;timestamp;pressure;altitude;pressure_sealevel;temperature;humidity
67397;BME280;57728;50.448;18.824;2024-03-23T00:53:07;97209.03;;;11.92;61.48
67397;BME280;57728;50.448;18.824;2024-03-23T00:55:09;97198.69;;;11.94;61.43
67397;BME280;57728;50.448;18.824;2024-03-23T00:57:10;97200.06;;;11.97;61.54
67397;BME280;57728;50.448;18.824;2024-03-23T00:59:11;97191.91;;;11.97;61.46
67397;BME280;57728;50.448;18.824;2024-03-23T01:01:13;97193.81;;;11.96;61.55
67397;BME280;57728;50.448;18.824;2024-03-23T01:03:14;97191.91;;;11.97;61.63
67397;BME280;57728;50.448;18.824;2024-03-23T01:05:16;97198.16;;;11.97;61.39
67397;BME280;57728;50.448;18.824;2024-03-23T01:07:18;97183.16;;;11.95;61.54
67397;BME280;57728;50.448;18.824;2024-03-23T01:09:19;97188.09;;;11.98;61.48
67397;BME280;57728;50.448;18.824;2024-03-23T01:11:20;97187.81;;;11.99;61.64
67397;BME280;57728;50.448;18.824;2024-03-23T01:13:22;97191.94;;;12.02;61.35
67397;BME280;57728;50.448;18.824;2024-03-23T01:15:23;97177.47;;;12.01;61.22
67397;BME280;57728;50.448;18.824;2024-03-23T01:17:24;97143.44;;;11.77;61.19
67397;BME280;57728;50.448;18.824;2024-03-23T01:19:26;97179.91;;;11.98;61.19
67397;BME280;57728;50.448;18.824;2024-03-23T01:21:27;97173.13;;;12.00;60.98
67397;BME280;57728;50.448;18.824;2024-03-23T01:23:28;97171.19;;;12.01;60.96
67397;BME280;57728;50.448;18.824;2024-03-23T01:25:30;97176.38;;;12.02;60.87
67397;BME280;57728;50.448;18.824;2024-03-23T01:27:31;97158.94;;;12.03;60.97
67397;BME280;57728;50.448;18.824;2024-03-23T01:29:32;97160.56;;;12.04;60.83
67397;BME280;57728;50.448;18.824;2024-03-23T01:31:34;97148.00;;;11.98;60.73
67397;BME280;57728;50.448;18.824;2024-03-23T01:33:38;97157.03;;;12.04;60.99
67397;BME280;57728;50.448;18.824;2024-03-23T01:35:39;97145.84;;;12.06;60.94
67397;BME280;57728;50.448;18.824;2024-03-23T01:37:41;97142.59;;;12.03;61.07
67397;BME280;57728;50.448;18.824;2024-03-23T01:39:42;97143.41;;;12.04;61.05
67397;BME280;57728;50.448;18.824;2024-03-23T01:41:43;97137.13;;;12.03;61.06
67397;BME280;57728;50.448;18.824;2024-03-23T01:43:45;97138.75;;;12.04;61.14
67397;BME280;57728;50.448;18.824;2024-03-23T01:45:46;97146.16;;;12.09;61.01
67397;BME280;57728;50.448;18.824;2024-03-23T01:47:47;97138.78;;;12.10;61.01
67397;BME280;57728;50.448;18.824;2024-03-23T01:49:54;97137.19;;;12.14;61.50
67397;BME280;57728;50.448;18.824;2024-03-23T01:51:55;97144.56;;;12.18;61.54
67397;BME280;57728;50.448;18.824;2024-03-23T01:53:56;97132.06;;;12.23;61.33
67397;BME280;57728;50.448;18.824;2024-03-23T01:55:59;97129.06;;;12.24;61.23
67397;BME280;57728;50.448;18.824;2024-03-23T01:58:00;97136.44;;;12.24;60.90
67397;BME280;57728;50.448;18.824;2024-03-23T02:00:01;97129.84;;;12.19;61.00
67397;BME280;57728;50.448;18.824;2024-03-23T02:02:13;97137.22;;;12.19;60.65
67397;BME280;57728;50.448;18.824;2024-03-23T02:04:14;97136.91;;;12.15;60.89
67397;BME280;57728;50.448;18.824;2024-03-23T02:06:15;97139.09;;;12.13;61.01
67397;BME280;57728;50.448;18.824;2024-03-23T02:08:20;97127.34;;;12.13;61.05
67397;BME280;57728;50.448;18.824;2024-03-23T02:10:22;97138.53;;;12.11;60.73
67397;BME280;57728;50.448;18.824;2024-03-23T02:12:24;97132.78;;;12.08;61.07
67397;BME280;57728;50.448;18.824;2024-03-23T02:14:26;97128.38;;;12.01;60.90
67397;BME280;57728;50.448;18.824;2024-03-23T02:16:27;97133.81;;;12.01;61.03
67397;BME280;57728;50.448;18.824;2024-03-23T02:18:28;97133.00;;;12.01;61.06
67397;BME280;57728;50.448;18.824;2024-03-23T02:20:30;97122.63;;;11.98;60.98
67397;BME280;57728;50.448;18.824;2024-03-23T02:22:38;97128.63;;;11.95;61.08
67397;BME280;57728;50.448;18.824;2024-03-23T02:24:39;97115.44;;;11.86;61.29
67397;BME280;57728;50.448;18.824;2024-03-23T02:26:41;97121.69;;;11.87;61.45
67397;BME280;57728;50.448;18.824;2024-03-23T02:28:42;97112.38;;;11.78;61.70
67397;BME280;57728;50.448;18.824;2024-03-23T02:30:43;97097.00;;;11.66;62.01
67397;BME280;57728;50.448;18.824;2024-03-23T02:32:45;97108.25;;;11.75;62.40
67397;BME280;57728;50.448;18.824;2024-03-23T02:34:46;97108.25;;;11.75;62.23
67397;BME280;57728;50.448;18.824;2024-03-23T02:36:48;97109.59;;;11.73;62.38
67397;BME280;57728;50.448;18.824;2024-03-23T02:38:49;97106.81;;;11.67;62.43
67397;BME280;57728;50.448;18.824;2024-03-23T02:40:50;97097.50;;;11.58;62.70
67397;BME280;57728;50.448;18.824;2024-03-23T02:42:52;97097.50;;;11.58;62.89
67397;BME280;57728;50.448;18.824;2024-03-23T02:44:54;97089.78;;;11.50;63.47
67397;BME280;57728;50.448;18.824;2024-03-23T02:46:55;97091.44;;;11.51;63.64
67397;BME280;57728;50.448;18.824;2024-03-23T02:48:56;97087.59;;;11.47;63.69
67397;BME280;57728;50.448;18.824;2024-03-23T02:50:58;97075.56;;;11.43;63.90
67397;BME280;57728;50.448;18.824;2024-03-23T02:52:59;97084.50;;;11.38;63.95
67397;BME280;57728;50.448;18.824;2024-03-23T02:55:01;97079.34;;;11.42;64.53
67397;BME280;57728;50.448;18.824;2024-03-23T02:57:06;97074.16;;;11.40;64.54
67397;BME280;57728;50.448;18.824;2024-03-23T02:59:07;97079.31;;;11.36;64.66
67397;BME280;57728;50.448;18.824;2024-03-23T03:01:08;97080.94;;;11.32;64.59
67397;BME280;57728;50.448;18.824;2024-03-23T03:03:13;97054.03;;;11.14;65.04
67397;BME280;57728;50.448;18.824;2024-03-23T03:05:14;97075.94;;;11.24;65.22
67397;BME280;57728;50.448;18.824;2024-03-23T03:07:15;97067.97;;;11.17;65.33
67397;BME280;57728;50.448;18.824;2024-03-23T03:09:17;97075.34;;;11.17;65.77
67397;BME280;57728;50.448;18.824;2024-03-23T03:11:18;97071.47;;;11.13;65.73
67397;BME280;57728;50.448;18.824;2024-03-23T03:13:19;97078.00;;;11.12;66.12
67397;BME280;57728;50.448;18.824;2024-03-23T03:15:21;97070.09;;;11.10;66.08
67397;BME280;57728;50.448;18.824;2024-03-23T03:17:23;97069.78;;;11.07;66.24
67397;BME280;57728;50.448;18.824;2024-03-23T03:19:24;97073.81;;;11.04;66.30
67397;BME280;57728;50.448;18.824;2024-03-23T03:21:26;97068.09;;;11.00;66.46
67397;BME280;57728;50.448;18.824;2024-03-23T03:23:27;97070.50;;;10.97;66.53
67397;BME280;57728;50.448;18.824;2024-03-23T03:25:29;97059.03;;;10.95;66.68
67397;BME280;57728;50.448;18.824;2024-03-23T03:27:31;97056.25;;;10.90;66.67
67397;BME280;57728;50.448;18.824;2024-03-23T03:29:32;97063.41;;;10.96;66.84
67397;BME280;57728;50.448;18.824;2024-03-23T03:31:36;97065.56;;;10.94;67.03
67397;BME280;57728;50.448;18.824;2024-03-23T03:33:38;97053.00;;;10.93;67.07
67397;BME280;57728;50.448;18.824;2024-03-23T03:35:39;97050.56;;;10.91;66.85
67397;BME280;57728;50.448;18.824;2024-03-23T03:37:41;97044.28;;;10.91;67.25
67397;BME280;57728;50.448;18.824;2024-03-23T03:39:43;97035.06;;;10.92;67.22
67397;BME280;57728;50.448;18.824;2024-03-23T03:41:44;97016.13;;;10.80;67.23
67397;BME280;57728;50.448;18.824;2024-03-23T03:43:45;97034.28;;;10.96;67.18
67397;BME280;57728;50.448;18.824;2024-03-23T03:45:56;97032.69;;;11.00;67.34
67397;BME280;57728;50.448;18.824;2024-03-23T03:47:58;97031.59;;;11.01;67.43
67397;BME280;57728;50.448;18.824;2024-03-23T03:50:00;97025.06;;;11.02;67.56
67397;BME280;57728;50.448;18.824;2024-03-23T03:52:02;97023.13;;;10.98;67.33
67397;BME280;57728;50.448;18.824;2024-03-23T03:54:03;97025.13;;;11.08;67.68
67397;BME280;57728;50.448;18.824;2024-03-23T03:56:04;97009.91;;;11.12;67.48
67397;BME280;57728;50.448;18.824;2024-03-23T03:58:06;97017.81;;;11.13;67.52
67397;BME280;57728;50.448;18.824;2024-03-23T04:00:08;97007.72;;;11.14;67.91
67397;BME280;57728;50.448;18.824;2024-03-23T04:02:12;97011.28;;;11.14;67.88
67397;BME280;57728;50.448;18.824;2024-03-23T04:04:14;97016.47;;;11.16;67.82
67397;BME280;57728;50.448;18.824;2024-03-23T04:06:19;96993.78;;;11.05;67.96
67397;BME280;57728;50.448;18.824;2024-03-23T04:08:21;96988.91;;;11.07;67.90
67397;BME280;57728;50.448;18.824;2024-03-23T04:10:23;97002.59;;;11.17;67.80
67397;BME280;57728;50.448;18.824;2024-03-23T04:12:24;97011.56;;;11.18;67.89
67397;BME280;57728;50.448;18.824;2024-03-23T04:14:25;97007.47;;;11.15;67.61
67397;BME280;57728;50.448;18.824;2024-03-23T04:16:33;97001.22;;;11.15;67.79
67397;BME280;57728;50.448;18.824;2024-03-23T04:18:35;96991.91;;;11.11;67.95
67397;BME280;57728;50.448;18.824;2024-03-23T04:20:37;96984.56;;;11.11;67.73
67397;BME280;57728;50.448;18.824;2024-03-23T04:22:39;96985.66;;;11.15;67.88
67397;BME280;57728;50.448;18.824;2024-03-23T04:24:40;96981.88;;;11.16;67.66
67397;BME280;57728;50.448;18.824;2024-03-23T04:26:42;96977.28;;;11.17;67.76
67397;BME280;57728;50.448;18.824;2024-03-23T04:28:44;96969.63;;;11.19;67.58
67397;BME280;57728;50.448;18.824;2024-03-23T04:30:46;96970.75;;;11.23;67.43
67397;BME280;57728;50.448;18.824;2024-03-23T04:32:47;96976.22;;;11.23;67.26
67397;BME280;57728;50.448;18.824;2024-03-23T04:34:49;96975.63;;;11.21;66.99
67397;BME280;57728;50.448;18.824;2024-03-23T04:36:50;96968.00;;;11.18;67.23
67397;BME280;57728;50.448;18.824;2024-03-23T04:38:51;96961.41;;;11.14;67.16
67397;BME280;57728;50.448;18.824;2024-03-23T04:40:58;96969.59;;;11.14;66.88
67397;BME280;57728;50.448;18.824;2024-03-23T04:43:00;96963.59;;;11.12;67.34
67397;BME280;57728;50.448;18.824;2024-03-23T04:45:02;96967.09;;;11.07;67.40
67397;BME280;57728;50.448;18.824;2024-03-23T04:47:04;96975.53;;;11.06;67.56
67397;BME280;57728;50.448;18.824;2024-03-23T04:49:08;96973.56;;;11.01;67.76
67397;BME280;57728;50.448;18.824;2024-03-23T04:51:09;96969.72;;;10.97;68.03
67397;BME280;57728;50.448;18.824;2024-03-23T04:53:12;96970.25;;;10.94;68.09
67397;BME280;57728;50.448;18.824;2024-03-23T04:55:13;96971.84;;;10.90;68.46
67397;BME280;57728;50.448;18.824;2024-03-23T04:57:15;96959.03;;;10.85;68.48
67397;BME280;57728;50.448;18.824;2024-03-23T04:59:22;96955.75;;;10.83;68.49
67397;BME280;57728;50.448;18.824;2024-03-23T05:01:23;96938.53;;;10.77;68.49
67397;BME280;57728;50.448;18.824;2024-03-23T05:03:25;96951.91;;;10.79;68.44
67397;BME280;57728;50.448;18.824;2024-03-23T05:05:27;96942.88;;;10.78;68.26
67397;BME280;57728;50.448;18.824;2024-03-23T05:07:28;96942.09;;;10.78;68.31
67397;BME280;57728;50.448;18.824;2024-03-23T05:09:30;96945.34;;;10.80;68.25
67397;BME280;57728;50.448;18.824;2024-03-23T05:11:33;96923.50;;;10.70;68.12
67397;BME280;57728;50.448;18.824;2024-03-23T05:13:34;96944.84;;;10.83;68.07
67397;BME280;57728;50.448;18.824;2024-03-23T05:15:35;96941.59;;;10.86;68.24
67397;BME280;57728;50.448;18.824;2024-03-23T05:17:38;96936.97;;;10.87;68.11
67397;BME280;57728;50.448;18.824;2024-03-23T05:19:39;96938.31;;;10.84;68.19
67397;BME280;57728;50.448;18.824;2024-03-23T05:21:40;96938.88;;;10.86;68.12
67397;BME280;57728;50.448;18.824;2024-03-23T05:23:42;96933.44;;;10.86;67.91
67397;BME280;57728;50.448;18.824;2024-03-23T05:25:44;96923.63;;;10.85;67.99
67397;BME280;57728;50.448;18.824;2024-03-23T05:27:45;96931.78;;;10.85;67.76
67397;BME280;57728;50.448;18.824;2024-03-23T05:29:47;96930.72;;;10.86;67.79
67397;BME280;57728;50.448;18.824;2024-03-23T05:31:49;96918.72;;;10.87;67.82
67397;BME280;57728;50.448;18.824;2024-03-23T05:33:52;96925.28;;;10.91;67.63
67397;BME280;57728;50.448;18.824;2024-03-23T05:35:59;96919.84;;;10.91;67.34
67397;BME280;57728;50.448;18.824;2024-03-23T05:38:01;96928.03;;;10.91;67.32
67397;BME280;57728;50.448;18.824;2024-03-23T05:40:02;96927.47;;;10.89;67.42
67397;BME280;57728;50.448;18.824;2024-03-23T05:42:05;96927.72;;;10.88;67.51
67397;BME280;57728;50.448;18.824;2024-03-23T05:44:06;96926.94;;;10.92;67.38
67397;BME280;57728;50.448;18.824;2024-03-23T05:46:07;96931.88;;;10.95;67.04
67397;BME280;57728;50.448;18.824;2024-03-23T05:48:11;96935.16;;;10.97;66.97
67397;BME280;57728;50.448;18.824;2024-03-23T05:50:12;96936.28;;;11.01;66.81
67397;BME280;57728;50.448;18.824;2024-03-23T05:52:13;96925.94;;;11.04;66.56
67397;BME280;57728;50.448;18.824;2024-03-23T05:54:15;96906.34;;;11.07;66.73
67397;BME280;57728;50.448;18.824;2024-03-23T05:56:19;96888.94;;;11.08;66.54
67397;BME280;57728;50.448;18.824;2024-03-23T05:58:21;96881.88;;;11.12;66.42
67397;BME280;57728;50.448;18.824;2024-03-23T06:00:23;96872.38;;;11.14;66.35
67397;BME280;57728;50.448;18.824;2024-03-23T06:02:27;96855.44;;;11.07;66.44
67397;BME280;57728;50.448;18.824;2024-03-23T06:04:28;96878.38;;;11.16;66.30
67397;BME280;57728;50.448;18.824;2024-03-23T06:06:29;96888.22;;;11.23;66.48
67397;BME280;57728;50.448;18.824;2024-03-23T06:08:31;96892.31;;;11.25;66.36
67397;BME280;57728;50.448;18.824;2024-03-23T06:10:32;96885.50;;;11.23;66.28
67397;BME280;57728;50.448;18.824;2024-03-23T06:12:34;96881.94;;;11.22;66.51
67397;BME280;57728;50.448;18.824;2024-03-23T06:14:35;96875.94;;;11.20;66.25
67397;BME280;57728;50.448;18.824;2024-03-23T06:16:36;96874.31;;;11.19;66.47
67397;BME280;57728;50.448;18.824;2024-03-23T06:18:39;96877.03;;;11.19;66.47
67397;BME280;57728;50.448;18.824;2024-03-23T06:20:40;96872.38;;;11.19;66.62
67397;BME280;57728;50.448;18.824;2024-03-23T06:22:41;96865.31;;;11.18;66.72
67397;BME280;57728;50.448;18.824;2024-03-23T06:24:44;96859.03;;;11.18;66.64
67397;BME280;57728;50.448;18.824;2024-03-23T06:26:45;96870.50;;;11.25;66.61
67397;BME280;57728;50.448;18.824;2024-03-23T06:28:47;96868.06;;;11.24;66.94
67397;BME280;57728;50.448;18.824;2024-03-23T06:30:49;96877.66;;;11.31;66.56
67397;BME280;57728;50.448;18.824;2024-03-23T06:32:50;96879.84;;;11.34;66.56
67397;BME280;57728;50.448;18.824;2024-03-23T06:34:51;96867.59;;;11.37;66.80
67397;BME280;57728;50.448;18.824;2024-03-23T06:36:53;96859.44;;;11.42;66.42
67397;BME280;57728;50.448;18.824;2024-03-23T06:38:54;96846.59;;;11.38;66.31
67397;BME280;57728;50.448;18.824;2024-03-23T06:40:55;96853.75;;;11.44;66.34
67397;BME280;57728;50.448;18.824;2024-03-23T06:42:57;96860.31;;;11.53;66.19
67397;BME280;57728;50.448;18.824;2024-03-23T06:44:58;96860.06;;;11.60;66.09
67397;BME280;57728;50.448;18.824;2024-03-23T06:46:59;96862.28;;;11.68;65.83
67397;BME280;57728;50.448;18.824;2024-03-23T06:49:01;96860.69;;;11.72;65.40
67397;BME280;57728;50.448;18.824;2024-03-23T06:51:02;96861.50;;;11.78;65.13
67397;BME280;57728;50.448;18.824;2024-03-23T06:53:04;96863.13;;;11.79;64.84
67397;BME280;57728;50.448;18.824;2024-03-23T06:55:08;96858.81;;;11.88;64.63
67397;BME280;57728;50.448;18.824;2024-03-23T06:57:09;96862.13;;;11.95;64.38
67397;BME280;57728;50.448;18.824;2024-03-23T06:59:10;96844.63;;;11.91;64.12
67397;BME280;57728;50.448;18.824;2024-03-23T07:01:12;96849.59;;;12.04;63.59
67397;BME280;57728;50.448;18.824;2024-03-23T07:03:14;96791.69;;;11.72;63.71
67397;BME280;57728;50.448;18.824;2024-03-23T07:05:17;96849.09;;;12.18;63.25
67397;BME280;57728;50.448;18.824;2024-03-23T07:07:19;96843.66;;;12.28;63.59
67397;BME280;57728;50.448;18.824;2024-03-23T07:09:20;96840.09;;;12.38;63.16
67397;BME280;57728;50.448;18.824;2024-03-23T07:11:25;96837.13;;;12.45;62.70
67397;BME280;57728;50.448;18.824;2024-03-23T07:13:28;96836.28;;;12.49;62.61
67397;BME280;57728;50.448;18.824;2024-03-23T07:15:33;96834.13;;;12.51;61.61
67397;BME280;57728;50.448;18.824;2024-03-23T07:17:34;96833.84;;;12.58;61.25
67397;BME280;57728;50.448;18.824;2024-03-23T07:19:36;96834.09;;;12.72;61.38
67397;BME280;57728;50.448;18.824;2024-03-23T07:21:37;96836.84;;;12.82;60.17
67397;BME280;57728;50.448;18.824;2024-03-23T07:23:42;96821.53;;;12.97;60.26
67397;BME280;57728;50.448;18.824;2024-03-23T07:25:59;96818.50;;;13.08;59.11
67397;BME280;57728;50.448;18.824;2024-03-23T07:28:00;96814.63;;;13.20;58.06
67397;BME280;57728;50.448;18.824;2024-03-23T07:30:02;96817.31;;;13.30;57.28
67397;BME280;57728;50.448;18.824;2024-03-23T07:32:04;96823.09;;;13.39;57.67
67397;BME280;57728;50.448;18.824;2024-03-23T07:34:05;96821.16;;;13.45;57.25
67397;BME280;57728;50.448;18.824;2024-03-23T07:36:06;96822.78;;;13.46;56.50
67397;BME280;57728;50.448;18.824;2024-03-23T07:38:12;96812.97;;;13.45;56.69
67397;BME280;57728;50.448;18.824;2024-03-23T07:40:13;96809.66;;;13.48;56.59
67397;BME280;57728;50.448;18.824;2024-03-23T07:42:14;96812.91;;;13.50;56.87
67397;BME280;57728;50.448;18.824;2024-03-23T07:44:16;96805.28;;;13.47;56.52
67397;BME280;57728;50.448;18.824;2024-03-23T07:46:18;96801.69;;;13.51;56.63
67397;BME280;57728;50.448;18.824;2024-03-23T07:48:23;96799.25;;;13.55;56.63
67397;BME280;57728;50.448;18.824;2024-03-23T07:50:25;96797.31;;;13.61;56.46
67397;BME280;57728;50.448;18.824;2024-03-23T07:52:29;96804.09;;;13.68;56.25
67397;BME280;57728;50.448;18.824;2024-03-23T07:54:30;96814.16;;;13.78;56.34
67397;BME280;57728;50.448;18.824;2024-03-23T07:56:32;96804.00;;;13.84;55.31
67397;BME280;57728;50.448;18.824;2024-03-23T07:58:34;96816.81;;;13.93;55.39
67397;BME280;57728;50.448;18.824;2024-03-23T08:00:35;96800.31;;;14.04;55.08
67397;BME280;57728;50.448;18.824;2024-03-23T08:02:37;96778.13;;;14.10;54.73
67397;BME280;57728;50.448;18.824;2024-03-23T08:04:38;96790.59;;;14.32;54.60
67397;BME280;57728;50.448;18.824;2024-03-23T08:06:39;96777.91;;;14.41;54.03
67397;BME280;57728;50.448;18.824;2024-03-23T08:08:43;96780.03;;;14.50;53.41
67397;BME280;57728;50.448;18.824;2024-03-23T08:10:50;96732.44;;;14.40;52.76
67397;BME280;57728;50.448;18.824;2024-03-23T08:12:51;96775.03;;;14.57;52.40
67397;BME280;57728;50.448;18.824;2024-03-23T08:14:53;96759.91;;;14.65;52.65
67397;BME280;57728;50.448;18.824;2024-03-23T08:16:54;96757.13;;;14.70;51.96
67397;BME280;57728;50.448;18.824;2024-03-23T08:18:56;96749.94;;;14.79;52.12
67397;BME280;57728;50.448;18.824;2024-03-23T08:21:04;96753.38;;;14.90;51.96
67397;BME280;57728;50.448;18.824;2024-03-23T08:23:06;96739.34;;;14.96;52.06
67397;BME280;57728;50.448;18.824;2024-03-23T08:25:07;96734.78;;;15.11;52.19
67397;BME280;57728;50.448;18.824;2024-03-23T08:27:09;96729.72;;;15.23;51.18
67397;BME280;57728;50.448;18.824;2024-03-23T08:29:10;96728.97;;;15.37;50.50
67397;BME280;57728;50.448;18.824;2024-03-23T08:31:13;96729.69;;;15.47;49.64
67397;BME280;57728;50.448;18.824;2024-03-23T08:33:16;96737.41;;;15.64;49.42
67397;BME280;57728;50.448;18.824;2024-03-23T08:35:18;96715.50;;;15.84;49.53
67397;BME280;57728;50.448;18.824;2024-03-23T08:37:19;96715.09;;;16.09;49.38
67397;BME280;57728;50.448;18.824;2024-03-23T08:39:21;96716.69;;;16.29;47.54
67397;BME280;57728;50.448;18.824;2024-03-23T08:41:23;96709.91;;;16.41;46.35
67397;BME280;57728;50.448;18.824;2024-03-23T08:43:26;96710.38;;;16.62;47.08
67397;BME280;57728;50.448;18.824;2024-03-23T08:45:28;96682.81;;;16.81;46.14
67397;BME280;57728;50.448;18.824;2024-03-23T08:47:29;96686.84;;;17.16;45.84
67397;BME280;57728;50.448;18.824;2024-03-23T08:49:30;96687.16;;;17.65;45.45
67397;BME280;57728;50.448;18.824;2024-03-23T08:51:32;96673.34;;;18.16;44.83
67397;BME280;57728;50.448;18.824;2024-03-23T08:53:35;96657.16;;;18.86;44.48
67397;BME280;57728;50.448;18.824;2024-03-23T08:55:36;96675.06;;;19.64;42.79
67397;BME280;57728;50.448;18.824;2024-03-23T08:57:38;96676.91;;;20.21;41.46
67397;BME280;57728;50.448;18.824;2024-03-23T08:59:39;96676.19;;;20.68;41.08
67397;BME280;57728;50.448;18.824;2024-03-23T09:01:40;96681.72;;;21.15;39.68
67397;BME280;57728;50.448;18.824;2024-03-23T09:03:42;96664.09;;;21.50;39.55
67397;BME280;57728;50.448;18.824;2024-03-23T09:05:43;96663.44;;;21.53;37.98
67397;BME280;57728;50.448;18.824;2024-03-23T09:07:44;96651.63;;;21.64;38.73
67397;BME280;57728;50.448;18.824;2024-03-23T09:09:46;96646.06;;;21.64;36.54
67397;BME280;57728;50.448;18.824;2024-03-23T09:11:47;96637.88;;;21.47;35.85
67397;BME280;57728;50.448;18.824;2024-03-23T09:13:48;96628.44;;;21.48;36.79
67397;BME280;57728;50.448;18.824;2024-03-23T09:15:51;96619.81;;;21.71;36.00
67397;BME280;57728;50.448;18.824;2024-03-23T09:17:59;96631.94;;;21.99;35.87
67397;BME280;57728;50.448;18.824;2024-03-23T09:20:00;96618.69;;;22.05;34.83
67397;BME280;57728;50.448;18.824;2024-03-23T09:22:02;96612.81;;;22.07;34.82
67397;BME280;57728;50.448;18.824;2024-03-23T09:24:04;96615.84;;;22.14;33.90
67397;BME280;57728;50.448;18.824;2024-03-23T09:26:05;96546.09;;;21.66;33.53
67397;BME280;57728;50.448;18.824;2024-03-23T09:28:12;96611.72;;;22.20;33.56
67397;BME280;57728;50.448;18.824;2024-03-23T09:30:13;96605.34;;;22.53;33.39
67397;BME280;57728;50.448;18.824;2024-03-23T09:32:18;96610.94;;;23.02;33.73
67397;BME280;57728;50.448;18.824;2024-03-23T09:34:19;96632.69;;;23.38;32.66
67397;BME280;57728;50.448;18.824;2024-03-23T09:36:20;96603.22;;;23.33;31.78
67397;BME280;57728;50.448;18.824;2024-03-23T09:38:22;96604.22;;;23.28;30.93
67397;BME280;57728;50.448;18.824;2024-03-23T09:40:25;96603.66;;;23.23;31.83
67397;BME280;57728;50.448;18.824;2024-03-23T09:42:26;96578.31;;;23.24;31.09
67397;BME280;57728;50.448;18.824;2024-03-23T09:44:28;96600.31;;;23.29;31.41
67397;BME280;57728;50.448;18.824;2024-03-23T09:46:31;96580.88;;;23.17;30.58
67397;BME280;57728;50.448;18.824;2024-03-23T09:48:35;96565.41;;;23.16;31.18
67397;BME280;57728;50.448;18.824;2024-03-23T09:50:38;96583.31;;;23.31;30.94
67397;BME280;57728;50.448;18.824;2024-03-23T09:52:41;96578.50;;;23.56;31.19
67397;BME280;57728;50.448;18.824;2024-03-23T09:54:44;96615.41;;;23.57;30.03
67397;BME280;57728;50.448;18.824;2024-03-23T09:56:45;96572.50;;;23.54;30.66
67397;BME280;57728;50.448;18.824;2024-03-23T09:58:47;96559.28;;;23.63;30.64
67397;BME280;57728;50.448;18.824;2024-03-23T10:00:48;96552.56;;;23.64;30.44
67397;BME280;57728;50.448;18.824;2024-03-23T10:02:49;96550.75;;;23.84;30.34
67397;BME280;57728;50.448;18.824;2024-03-23T10:04:51;96563.34;;;23.94;30.33
67397;BME280;57728;50.448;18.824;2024-03-23T10:06:52;96557.38;;;24.08;30.24
67397;BME280;57728;50.448;18.824;2024-03-23T10:08:53;96544.50;;;24.48;29.97
67397;BME280;57728;50.448;18.824;2024-03-23T10:10:56;96525.94;;;24.68;29.66
67397;BME280;57728;50.448;18.824;2024-03-23T10:12:58;96534.75;;;24.86;29.39
67397;BME280;57728;50.448;18.824;2024-03-23T10:14:59;96518.19;;;24.93;29.16
67397;BME280;57728;50.448;18.824;2024-03-23T10:17:18;96510.63;;;25.29;29.50
67397;BME280;57728;50.448;18.824;2024-03-23T10:19:31;96513.63;;;25.56;28.92
67397;BME280;57728;50.448;18.824;2024-03-23T10:21:32;96532.28;;;25.00;29.11
67397;BME280;57728;50.448;18.824;2024-03-23T10:23:35;96509.94;;;24.17;29.61
67397;BME280;57728;50.448;18.824;2024-03-23T10:25:37;96514.66;;;23.44;30.85
67397;BME280;57728;50.448;18.824;2024-03-23T10:27:38;96515.69;;;22.86;31.78
67397;BME280;57728;50.448;18.824;2024-03-23T10:29:40;96504.38;;;22.42;32.22
67397;BME280;57728;50.448;18.824;2024-03-23T10:31:42;96501.72;;;21.87;33.12
67397;BME280;57728;50.448;18.824;2024-03-23T10:33:49;96494.63;;;21.23;33.49
67397;BME280;57728;50.448;18.824;2024-03-23T10:35:51;96490.81;;;20.85;34.41
67397;BME280;57728;50.448;18.824;2024-03-23T10:37:53;96491.31;;;20.87;35.34
67397;BME280;57728;50.448;18.824;2024-03-23T10:39:56;96489.63;;;21.16;35.24
67397;BME280;57728;50.448;18.824;2024-03-23T10:42:00;96478.75;;;21.53;35.28
67397;BME280;57728;50.448;18.824;2024-03-23T10:44:05;96470.72;;;22.19;34.78
67397;BME280;57728;50.448;18.824;2024-03-23T10:46:08;96465.97;;;22.93;34.16
67397;BME280;57728;50.448;18.824;2024-03-23T10:48:10;96444.59;;;23.63;33.16
67397;BME280;57728;50.448;18.824;2024-03-23T10:50:11;96439.09;;;24.43;32.04
67397;BME280;57728;50.448;18.824;2024-03-23T10:52:12;96443.06;;;24.93;31.50
67397;BME280;57728;50.448;18.824;2024-03-23T10:54:14;96449.25;;;25.42;30.07
67397;BME280;57728;50.448;18.824;2024-03-23T10:56:17;96428.88;;;25.80;29.40
67397;BME280;57728;50.448;18.824;2024-03-23T10:58:26;96428.44;;;26.21;28.61
67397;BME280;57728;50.448;18.824;2024-03-23T11:00:39;96419.34;;;26.51;27.90
67397;BME280;57728;50.448;18.824;2024-03-23T11:02:41;96416.66;;;26.58;27.38
67397;BME280;57728;50.448;18.824;2024-03-23T11:04:42;96396.31;;;26.54;27.22
67397;BME280;57728;50.448;18.824;2024-03-23T11:06:44;96401.59;;;26.63;27.38
67397;BME280;57728;50.448;18.824;2024-03-23T11:08:45;96389.13;;;26.80;27.36
67397;BME280;57728;50.448;18.824;2024-03-23T11:10:46;96391.72;;;26.96;26.26
67397;BME280;57728;50.448;18.824;2024-03-23T11:12:48;96377.09;;;26.49;26.30
67397;BME280;57728;50.448;18.824;2024-03-23T11:15:11;96374.66;;;26.47;26.42
67397;BME280;57728;50.448;18.824;2024-03-23T11:17:18;96365.38;;;26.39;26.23
67397;BME280;57728;50.448;18.824;2024-03-23T11:19:34;96352.34;;;26.20;25.90
67397;BME280;57728;50.448;18.824;2024-03-23T11:21:54;96367.66;;;26.30;26.02
67397;BME280;57728;50.448;18.824;2024-03-23T11:24:15;96344.41;;;26.49;26.04
67397;BME280;57728;50.448;18.824;2024-03-23T11:26:17;96343.78;;;26.63;25.32
67397;BME280;57728;50.448;18.824;2024-03-23T11:28:18;96330.88;;;26.78;25.58
67397;BME280;57728;50.448;18.824;2024-03-23T11:32:26;96311.72;;;27.10;24.84
67397;BME280;57728;50.448;18.824;2024-03-23T11:34:27;96312.84;;;27.06;24.37